sensor_id;sensor_type;location;lat;lon;timestamp;temperature;humidity
7325;DHT22;3703;48.016;7.802;2023-06-14T00:00:55;21.20;1.00
7325;DHT22;3703;48.016;7.802;2023-06-14T00:03:22;20.90;1.00
7325;DHT22;3703;48.016;7.802;2023-06-14T00:05:50;21.10;1.00
7325;DHT22;3703;48.016;7.802;2023-06-14T00:08:17;20.90;1.00
7325;DHT22;3703;48.016;7.802;2023-06-14T00:10:47;20.90;1.00
7325;DHT22;3703;48.016;7.802;2023-06-14T00:13:15;20.90;1.00
7325;DHT22;3703;48.016;7.802;2023-06-14T00:15:43;20.80;1.00
7325;DHT22;3703;48.016;7.802;2023-06-14T00:18:10;20.70;1.00
7325;DHT22;3703;48.016;7.802;2023-06-14T00:20:38;20.70;1.00
7325;DHT22;3703;48.016;7.802;2023-06-14T00:23:07;20.80;1.00
7325;DHT22;3703;48.016;7.802;2023-06-14T00:25:34;20.80;1.00
7325;DHT22;3703;48.016;7.802;2023-06-14T00:28:01;20.70;1.00
7325;DHT22;3703;48.016;7.802;2023-06-14T00:30:30;20.50;90.30
7325;DHT22;3703;48.016;7.802;2023-06-14T00:32:58;20.60;1.00
7325;DHT22;3703;48.016;7.802;2023-06-14T00:35:25;20.60;1.00
7325;DHT22;3703;48.016;7.802;2023-06-14T00:37:52;20.50;1.00
7325;DHT22;3703;48.016;7.802;2023-06-14T00:40:20;20.60;1.00
7325;DHT22;3703;48.016;7.802;2023-06-14T00:42:47;20.60;1.00
7325;DHT22;3703;48.016;7.802;2023-06-14T00:45:15;20.60;1.00
7325;DHT22;3703;48.016;7.802;2023-06-14T00:47:46;20.40;1.00
7325;DHT22;3703;48.016;7.802;2023-06-14T00:50:13;20.30;1.00
7325;DHT22;3703;48.016;7.802;2023-06-14T00:52:41;20.30;1.00
7325;DHT22;3703;48.016;7.802;2023-06-14T00:55:09;20.40;1.00
7325;DHT22;3703;48.016;7.802;2023-06-14T00:57:36;20.20;1.00
7325;DHT22;3703;48.016;7.802;2023-06-14T01:00:06;20.30;1.00
7325;DHT22;3703;48.016;7.802;2023-06-14T01:02:35;20.30;1.00
7325;DHT22;3703;48.016;7.802;2023-06-14T01:05:05;20.10;1.00
7325;DHT22;3703;48.016;7.802;2023-06-14T01:07:51;20.00;1.00
7325;DHT22;3703;48.016;7.802;2023-06-14T01:10:34;20.10;1.00
7325;DHT22;3703;48.016;7.802;2023-06-14T01:13:10;20.00;1.00
7325;DHT22;3703;48.016;7.802;2023-06-14T01:15:39;20.00;1.00
7325;DHT22;3703;48.016;7.802;2023-06-14T01:18:08;19.90;1.00
7325;DHT22;3703;48.016;7.802;2023-06-14T01:20:44;19.90;1.00
7325;DHT22;3703;48.016;7.802;2023-06-14T01:23:16;19.10;1.00
7325;DHT22;3703;48.016;7.802;2023-06-14T01:25:44;19.90;1.00
7325;DHT22;3703;48.016;7.802;2023-06-14T01:28:13;19.80;1.00
7325;DHT22;3703;48.016;7.802;2023-06-14T01:30:44;19.80;1.00
7325;DHT22;3703;48.016;7.802;2023-06-14T01:33:14;19.10;1.00
7325;DHT22;3703;48.016;7.802;2023-06-14T01:35:43;19.70;1.00
7325;DHT22;3703;48.016;7.802;2023-06-14T01:38:13;19.70;1.00
7325;DHT22;3703;48.016;7.802;2023-06-14T01:40:43;19.70;1.00
7325;DHT22;3703;48.016;7.802;2023-06-14T01:43:11;19.80;1.00
7325;DHT22;3703;48.016;7.802;2023-06-14T01:45:40;19.80;1.00
7325;DHT22;3703;48.016;7.802;2023-06-14T01:48:08;19.70;1.00
7325;DHT22;3703;48.016;7.802;2023-06-14T01:50:36;19.60;1.00
7325;DHT22;3703;48.016;7.802;2023-06-14T01:53:06;19.40;1.00
7325;DHT22;3703;48.016;7.802;2023-06-14T01:55:34;19.40;1.00
7325;DHT22;3703;48.016;7.802;2023-06-14T01:58:05;19.40;1.00
7325;DHT22;3703;48.016;7.802;2023-06-14T02:00:33;19.30;85.10
7325;DHT22;3703;48.016;7.802;2023-06-14T02:03:00;19.20;1.80
7325;DHT22;3703;48.016;7.802;2023-06-14T02:05:27;19.20;7.00
7325;DHT22;3703;48.016;7.802;2023-06-14T02:07:55;19.20;5.60
7325;DHT22;3703;48.016;7.802;2023-06-14T02:10:23;19.10;7.40
7325;DHT22;3703;48.016;7.802;2023-06-14T02:12:50;19.10;8.20
7325;DHT22;3703;48.016;7.802;2023-06-14T02:15:19;19.10;12.30
7325;DHT22;3703;48.016;7.802;2023-06-14T02:17:47;19.00;12.90
7325;DHT22;3703;48.016;7.802;2023-06-14T02:20:16;19.00;16.30
7325;DHT22;3703;48.016;7.802;2023-06-14T02:22:44;18.90;20.00
7325;DHT22;3703;48.016;7.802;2023-06-14T02:25:12;18.90;23.40
7325;DHT22;3703;48.016;7.802;2023-06-14T02:27:39;18.90;27.60
7325;DHT22;3703;48.016;7.802;2023-06-14T02:30:07;18.90;30.40
7325;DHT22;3703;48.016;7.802;2023-06-14T02:32:36;18.90;34.40
7325;DHT22;3703;48.016;7.802;2023-06-14T02:35:04;18.80;39.40
7325;DHT22;3703;48.016;7.802;2023-06-14T02:37:32;19.00;44.80
7325;DHT22;3703;48.016;7.802;2023-06-14T02:40:00;18.90;46.90
7325;DHT22;3703;48.016;7.802;2023-06-14T02:42:28;18.60;45.80
7325;DHT22;3703;48.016;7.802;2023-06-14T02:44:55;18.60;49.30
7325;DHT22;3703;48.016;7.802;2023-06-14T02:47:22;18.70;58.10
7325;DHT22;3703;48.016;7.802;2023-06-14T02:49:51;18.50;61.20
7325;DHT22;3703;48.016;7.802;2023-06-14T02:52:19;18.50;70.40
7325;DHT22;3703;48.016;7.802;2023-06-14T02:54:46;18.50;78.60
7325;DHT22;3703;48.016;7.802;2023-06-14T02:57:14;18.50;87.80
7325;DHT22;3703;48.016;7.802;2023-06-14T02:59:42;18.50;93.10
7325;DHT22;3703;48.016;7.802;2023-06-14T03:02:09;18.40;96.50
7325;DHT22;3703;48.016;7.802;2023-06-14T03:04:36;18.10;97.30
7325;DHT22;3703;48.016;7.802;2023-06-14T03:07:05;18.20;99.90
7325;DHT22;3703;48.016;7.802;2023-06-14T03:09:35;18.30;99.90
7325;DHT22;3703;48.016;7.802;2023-06-14T03:12:04;18.30;99.90
7325;DHT22;3703;48.016;7.802;2023-06-14T03:14:32;18.20;99.90
7325;DHT22;3703;48.016;7.802;2023-06-14T03:17:00;18.10;99.90
7325;DHT22;3703;48.016;7.802;2023-06-14T03:19:28;18.20;99.90
7325;DHT22;3703;48.016;7.802;2023-06-14T03:21:55;18.20;99.90
7325;DHT22;3703;48.016;7.802;2023-06-14T03:24:25;18.10;99.90
7325;DHT22;3703;48.016;7.802;2023-06-14T03:26:54;18.20;99.90
7325;DHT22;3703;48.016;7.802;2023-06-14T03:29:22;18.20;99.90
7325;DHT22;3703;48.016;7.802;2023-06-14T03:31:57;18.20;99.90
7325;DHT22;3703;48.016;7.802;2023-06-14T03:34:25;18.20;99.90
7325;DHT22;3703;48.016;7.802;2023-06-14T03:36:52;18.20;99.90
7325;DHT22;3703;48.016;7.802;2023-06-14T03:39:19;18.20;99.90
7325;DHT22;3703;48.016;7.802;2023-06-14T03:41:48;18.10;99.90
7325;DHT22;3703;48.016;7.802;2023-06-14T03:44:16;18.00;99.90
7325;DHT22;3703;48.016;7.802;2023-06-14T03:46:44;18.10;99.90
7325;DHT22;3703;48.016;7.802;2023-06-14T03:49:12;17.90;99.90
7325;DHT22;3703;48.016;7.802;2023-06-14T03:51:39;17.90;99.90
7325;DHT22;3703;48.016;7.802;2023-06-14T03:54:07;17.80;99.90
7325;DHT22;3703;48.016;7.802;2023-06-14T03:56:35;17.60;99.90
7325;DHT22;3703;48.016;7.802;2023-06-14T03:59:03;17.60;99.90
7325;DHT22;3703;48.016;7.802;2023-06-14T04:01:30;17.70;99.90
7325;DHT22;3703;48.016;7.802;2023-06-14T04:03:59;17.60;99.90
7325;DHT22;3703;48.016;7.802;2023-06-14T04:06:26;17.70;99.90
7325;DHT22;3703;48.016;7.802;2023-06-14T04:08:58;17.70;99.90
7325;DHT22;3703;48.016;7.802;2023-06-14T04:11:29;17.80;99.90
7325;DHT22;3703;48.016;7.802;2023-06-14T04:13:57;17.80;99.90
7325;DHT22;3703;48.016;7.802;2023-06-14T04:16:26;17.90;99.90
7325;DHT22;3703;48.016;7.802;2023-06-14T04:18:55;17.80;99.90
7325;DHT22;3703;48.016;7.802;2023-06-14T04:21:23;16.90;99.90
7325;DHT22;3703;48.016;7.802;2023-06-14T04:23:53;17.90;99.90
7325;DHT22;3703;48.016;7.802;2023-06-14T04:26:21;17.90;99.90
7325;DHT22;3703;48.016;7.802;2023-06-14T04:28:49;18.00;99.90
7325;DHT22;3703;48.016;7.802;2023-06-14T04:31:17;18.10;99.90
7325;DHT22;3703;48.016;7.802;2023-06-14T04:33:46;18.10;99.90
7325;DHT22;3703;48.016;7.802;2023-06-14T04:36:13;18.10;99.90
7325;DHT22;3703;48.016;7.802;2023-06-14T04:38:43;17.90;99.90
7325;DHT22;3703;48.016;7.802;2023-06-14T04:41:12;17.70;99.90
7325;DHT22;3703;48.016;7.802;2023-06-14T04:43:39;17.70;99.90
7325;DHT22;3703;48.016;7.802;2023-06-14T04:46:08;17.80;99.90
7325;DHT22;3703;48.016;7.802;2023-06-14T04:48:37;18.00;99.90
7325;DHT22;3703;48.016;7.802;2023-06-14T04:51:08;18.10;99.90
7325;DHT22;3703;48.016;7.802;2023-06-14T04:53:36;18.10;99.90
7325;DHT22;3703;48.016;7.802;2023-06-14T04:56:03;18.20;99.90
7325;DHT22;3703;48.016;7.802;2023-06-14T04:58:31;18.20;99.90
7325;DHT22;3703;48.016;7.802;2023-06-14T05:00:58;18.30;99.90
7325;DHT22;3703;48.016;7.802;2023-06-14T05:03:27;18.40;99.90
7325;DHT22;3703;48.016;7.802;2023-06-14T05:05:56;18.50;99.90
7325;DHT22;3703;48.016;7.802;2023-06-14T05:08:25;18.60;99.90
7325;DHT22;3703;48.016;7.802;2023-06-14T05:10:52;18.80;99.90
7325;DHT22;3703;48.016;7.802;2023-06-14T05:13:20;19.00;99.90
7325;DHT22;3703;48.016;7.802;2023-06-14T05:15:48;19.20;99.90
7325;DHT22;3703;48.016;7.802;2023-06-14T05:18:16;19.40;99.90
7325;DHT22;3703;48.016;7.802;2023-06-14T05:20:43;19.50;99.90
7325;DHT22;3703;48.016;7.802;2023-06-14T05:23:11;19.50;99.90
7325;DHT22;3703;48.016;7.802;2023-06-14T05:25:43;20.00;99.90
7325;DHT22;3703;48.016;7.802;2023-06-14T05:28:11;19.90;99.90
7325;DHT22;3703;48.016;7.802;2023-06-14T05:30:39;20.00;99.90
7325;DHT22;3703;48.016;7.802;2023-06-14T05:33:06;19.90;99.90
7325;DHT22;3703;48.016;7.802;2023-06-14T05:35:33;20.00;99.90
7325;DHT22;3703;48.016;7.802;2023-06-14T05:38:00;20.00;99.90
7325;DHT22;3703;48.016;7.802;2023-06-14T05:40:28;20.20;99.90
7325;DHT22;3703;48.016;7.802;2023-06-14T05:42:56;20.10;99.90
7325;DHT22;3703;48.016;7.802;2023-06-14T05:45:24;20.20;99.90
7325;DHT22;3703;48.016;7.802;2023-06-14T05:47:51;20.30;99.90
7325;DHT22;3703;48.016;7.802;2023-06-14T05:50:20;20.20;99.90
7325;DHT22;3703;48.016;7.802;2023-06-14T05:52:47;20.30;99.90
7325;DHT22;3703;48.016;7.802;2023-06-14T05:55:16;20.50;99.90
7325;DHT22;3703;48.016;7.802;2023-06-14T05:57:43;20.40;99.90
7325;DHT22;3703;48.016;7.802;2023-06-14T06:00:13;20.60;99.90
7325;DHT22;3703;48.016;7.802;2023-06-14T06:02:41;20.60;99.90
7325;DHT22;3703;48.016;7.802;2023-06-14T06:05:09;20.60;99.90
7325;DHT22;3703;48.016;7.802;2023-06-14T06:07:37;20.90;99.90
7325;DHT22;3703;48.016;7.802;2023-06-14T06:10:06;20.80;99.90
7325;DHT22;3703;48.016;7.802;2023-06-14T06:12:34;21.00;99.90
7325;DHT22;3703;48.016;7.802;2023-06-14T06:15:01;20.90;99.90
7325;DHT22;3703;48.016;7.802;2023-06-14T06:17:30;21.00;99.90
7325;DHT22;3703;48.016;7.802;2023-06-14T06:19:57;21.00;99.90
7325;DHT22;3703;48.016;7.802;2023-06-14T06:22:24;21.00;99.90
7325;DHT22;3703;48.016;7.802;2023-06-14T06:24:51;21.10;99.90
7325;DHT22;3703;48.016;7.802;2023-06-14T06:27:18;21.10;99.90
7325;DHT22;3703;48.016;7.802;2023-06-14T06:29:46;21.10;99.90
7325;DHT22;3703;48.016;7.802;2023-06-14T06:32:14;21.40;99.90
7325;DHT22;3703;48.016;7.802;2023-06-14T06:34:42;21.40;99.90
7325;DHT22;3703;48.016;7.802;2023-06-14T06:37:10;21.40;99.90
7325;DHT22;3703;48.016;7.802;2023-06-14T06:39:38;21.50;99.90
7325;DHT22;3703;48.016;7.802;2023-06-14T06:42:05;21.60;99.90
7325;DHT22;3703;48.016;7.802;2023-06-14T06:44:33;21.60;99.90
7325;DHT22;3703;48.016;7.802;2023-06-14T06:47:00;21.40;99.90
7325;DHT22;3703;48.016;7.802;2023-06-14T06:49:28;21.40;99.90
7325;DHT22;3703;48.016;7.802;2023-06-14T06:52:04;21.60;99.90
7325;DHT22;3703;48.016;7.802;2023-06-14T06:54:33;21.60;99.90
7325;DHT22;3703;48.016;7.802;2023-06-14T06:57:01;21.60;99.90
7325;DHT22;3703;48.016;7.802;2023-06-14T06:59:28;21.70;99.90
7325;DHT22;3703;48.016;7.802;2023-06-14T07:01:56;21.90;99.90
7325;DHT22;3703;48.016;7.802;2023-06-14T07:04:23;21.90;99.90
7325;DHT22;3703;48.016;7.802;2023-06-14T07:06:51;21.70;99.90
7325;DHT22;3703;48.016;7.802;2023-06-14T07:09:19;21.60;99.90
7325;DHT22;3703;48.016;7.802;2023-06-14T07:11:47;21.90;99.90
7325;DHT22;3703;48.016;7.802;2023-06-14T07:14:14;21.90;99.90
7325;DHT22;3703;48.016;7.802;2023-06-14T07:16:42;22.10;99.90
7325;DHT22;3703;48.016;7.802;2023-06-14T07:19:10;22.10;99.90
7325;DHT22;3703;48.016;7.802;2023-06-14T07:21:38;22.30;99.90
7325;DHT22;3703;48.016;7.802;2023-06-14T07:24:08;22.40;99.90
7325;DHT22;3703;48.016;7.802;2023-06-14T07:26:37;22.70;99.90
7325;DHT22;3703;48.016;7.802;2023-06-14T07:29:04;22.70;99.90
7325;DHT22;3703;48.016;7.802;2023-06-14T07:31:31;22.70;99.90
7325;DHT22;3703;48.016;7.802;2023-06-14T07:33:59;22.70;99.90
7325;DHT22;3703;48.016;7.802;2023-06-14T07:36:26;22.70;99.90
7325;DHT22;3703;48.016;7.802;2023-06-14T07:38:53;22.60;99.90
7325;DHT22;3703;48.016;7.802;2023-06-14T07:41:20;22.70;99.90
7325;DHT22;3703;48.016;7.802;2023-06-14T07:43:49;22.90;99.90
7325;DHT22;3703;48.016;7.802;2023-06-14T07:46:17;22.70;99.90
7325;DHT22;3703;48.016;7.802;2023-06-14T07:48:44;22.50;99.90
7325;DHT22;3703;48.016;7.802;2023-06-14T07:51:11;22.70;99.90
7325;DHT22;3703;48.016;7.802;2023-06-14T07:53:39;22.50;99.90
7325;DHT22;3703;48.016;7.802;2023-06-14T07:56:07;22.70;99.90
7325;DHT22;3703;48.016;7.802;2023-06-14T07:58:35;22.70;99.90
7325;DHT22;3703;48.016;7.802;2023-06-14T08:01:04;22.60;99.90
7325;DHT22;3703;48.016;7.802;2023-06-14T08:03:33;22.90;99.90
7325;DHT22;3703;48.016;7.802;2023-06-14T08:06:01;22.90;99.90
7325;DHT22;3703;48.016;7.802;2023-06-14T08:08:29;23.00;99.90
7325;DHT22;3703;48.016;7.802;2023-06-14T08:10:57;23.00;99.90
7325;DHT22;3703;48.016;7.802;2023-06-14T08:13:24;23.20;99.90
7325;DHT22;3703;48.016;7.802;2023-06-14T08:15:51;23.50;99.90
7325;DHT22;3703;48.016;7.802;2023-06-14T08:18:20;23.60;99.90
7325;DHT22;3703;48.016;7.802;2023-06-14T08:20:47;23.70;99.90
7325;DHT22;3703;48.016;7.802;2023-06-14T08:23:15;23.60;99.90
7325;DHT22;3703;48.016;7.802;2023-06-14T08:25:44;23.80;99.90
7325;DHT22;3703;48.016;7.802;2023-06-14T08:28:12;23.90;99.90
7325;DHT22;3703;48.016;7.802;2023-06-14T08:30:39;23.90;99.90
7325;DHT22;3703;48.016;7.802;2023-06-14T08:33:06;23.90;99.90
7325;DHT22;3703;48.016;7.802;2023-06-14T08:35:35;24.20;99.90
7325;DHT22;3703;48.016;7.802;2023-06-14T08:38:02;24.40;99.90
7325;DHT22;3703;48.016;7.802;2023-06-14T08:40:31;24.20;99.90
7325;DHT22;3703;48.016;7.802;2023-06-14T08:42:58;23.90;99.90
7325;DHT22;3703;48.016;7.802;2023-06-14T08:45:26;23.70;99.90
7325;DHT22;3703;48.016;7.802;2023-06-14T08:47:53;23.60;99.90
7325;DHT22;3703;48.016;7.802;2023-06-14T08:50:25;23.50;99.90
7325;DHT22;3703;48.016;7.802;2023-06-14T08:52:58;23.80;99.90
7325;DHT22;3703;48.016;7.802;2023-06-14T08:55:28;23.90;99.90
7325;DHT22;3703;48.016;7.802;2023-06-14T08:57:57;23.70;99.90
7325;DHT22;3703;48.016;7.802;2023-06-14T09:00:26;23.80;99.90
7325;DHT22;3703;48.016;7.802;2023-06-14T09:02:54;24.30;99.90
7325;DHT22;3703;48.016;7.802;2023-06-14T09:05:23;24.30;99.90
7325;DHT22;3703;48.016;7.802;2023-06-14T09:07:51;24.10;99.90
7325;DHT22;3703;48.016;7.802;2023-06-14T09:10:22;24.50;99.90
7325;DHT22;3703;48.016;7.802;2023-06-14T09:12:51;24.40;99.90
7325;DHT22;3703;48.016;7.802;2023-06-14T09:15:19;24.70;99.90
7325;DHT22;3703;48.016;7.802;2023-06-14T09:17:46;25.10;99.90
7325;DHT22;3703;48.016;7.802;2023-06-14T09:20:13;25.30;99.90
7325;DHT22;3703;48.016;7.802;2023-06-14T09:22:43;24.60;99.90
7325;DHT22;3703;48.016;7.802;2023-06-14T09:25:11;24.90;99.90
7325;DHT22;3703;48.016;7.802;2023-06-14T09:27:42;24.90;99.90
7325;DHT22;3703;48.016;7.802;2023-06-14T09:30:10;25.20;99.90
7325;DHT22;3703;48.016;7.802;2023-06-14T09:32:39;25.30;99.90
7325;DHT22;3703;48.016;7.802;2023-06-14T09:35:07;25.40;99.90
7325;DHT22;3703;48.016;7.802;2023-06-14T09:37:36;25.50;99.90
7325;DHT22;3703;48.016;7.802;2023-06-14T09:40:05;25.50;99.90
7325;DHT22;3703;48.016;7.802;2023-06-14T09:42:33;25.30;99.90
7325;DHT22;3703;48.016;7.802;2023-06-14T09:45:03;25.50;99.90
7325;DHT22;3703;48.016;7.802;2023-06-14T09:47:31;25.60;99.90
7325;DHT22;3703;48.016;7.802;2023-06-14T09:49:58;25.40;99.90
7325;DHT22;3703;48.016;7.802;2023-06-14T09:52:27;25.50;99.90
7325;DHT22;3703;48.016;7.802;2023-06-14T09:54:56;25.80;99.90
7325;DHT22;3703;48.016;7.802;2023-06-14T09:57:27;26.00;99.90
7325;DHT22;3703;48.016;7.802;2023-06-14T10:00:02;26.00;99.90
7325;DHT22;3703;48.016;7.802;2023-06-14T10:02:37;26.10;99.90
7325;DHT22;3703;48.016;7.802;2023-06-14T10:05:06;25.90;99.90
7325;DHT22;3703;48.016;7.802;2023-06-14T10:07:40;26.00;99.90
7325;DHT22;3703;48.016;7.802;2023-06-14T10:10:09;26.30;99.90
7325;DHT22;3703;48.016;7.802;2023-06-14T10:12:38;26.50;99.90
7325;DHT22;3703;48.016;7.802;2023-06-14T10:15:09;26.40;99.90
7325;DHT22;3703;48.016;7.802;2023-06-14T10:17:46;26.40;99.90
7325;DHT22;3703;48.016;7.802;2023-06-14T10:20:23;26.30;99.90
7325;DHT22;3703;48.016;7.802;2023-06-14T10:22:59;26.70;99.90
7325;DHT22;3703;48.016;7.802;2023-06-14T10:25:31;26.70;99.90
7325;DHT22;3703;48.016;7.802;2023-06-14T10:28:18;26.20;99.90
7325;DHT22;3703;48.016;7.802;2023-06-14T10:31:06;26.20;99.90
7325;DHT22;3703;48.016;7.802;2023-06-14T10:33:35;26.30;99.90
7325;DHT22;3703;48.016;7.802;2023-06-14T10:36:10;26.60;99.90
7325;DHT22;3703;48.016;7.802;2023-06-14T10:38:57;26.90;99.90
7325;DHT22;3703;48.016;7.802;2023-06-14T10:41:27;27.00;99.90
7325;DHT22;3703;48.016;7.802;2023-06-14T10:47:10;27.20;99.90
7325;DHT22;3703;48.016;7.802;2023-06-14T10:49:50;27.00;99.90
7325;DHT22;3703;48.016;7.802;2023-06-14T10:52:22;27.10;99.90
7325;DHT22;3703;48.016;7.802;2023-06-14T10:55:07;27.20;99.90
7325;DHT22;3703;48.016;7.802;2023-06-14T10:57:38;27.40;99.90
7325;DHT22;3703;48.016;7.802;2023-06-14T11:00:07;27.40;99.90
7325;DHT22;3703;48.016;7.802;2023-06-14T11:05:54;27.40;99.90
7325;DHT22;3703;48.016;7.802;2023-06-14T11:08:40;27.50;99.90
7325;DHT22;3703;48.016;7.802;2023-06-14T11:11:32;27.60;99.90
7325;DHT22;3703;48.016;7.802;2023-06-14T11:14:01;27.60;99.90
7325;DHT22;3703;48.016;7.802;2023-06-14T11:16:28;27.70;99.90
7325;DHT22;3703;48.016;7.802;2023-06-14T11:19:00;27.90;99.90
7325;DHT22;3703;48.016;7.802;2023-06-14T11:21:28;27.90;99.90
7325;DHT22;3703;48.016;7.802;2023-06-14T11:23:57;28.00;99.90
7325;DHT22;3703;48.016;7.802;2023-06-14T11:26:25;28.00;99.90
7325;DHT22;3703;48.016;7.802;2023-06-14T11:28:55;28.10;99.90
7325;DHT22;3703;48.016;7.802;2023-06-14T11:31:24;28.10;99.90
7325;DHT22;3703;48.016;7.802;2023-06-14T11:33:54;28.00;99.90
7325;DHT22;3703;48.016;7.802;2023-06-14T11:36:26;27.90;99.90
7325;DHT22;3703;48.016;7.802;2023-06-14T11:38:58;27.90;99.90
7325;DHT22;3703;48.016;7.802;2023-06-14T11:41:32;28.20;99.90
7325;DHT22;3703;48.016;7.802;2023-06-14T11:44:01;28.40;99.90
7325;DHT22;3703;48.016;7.802;2023-06-14T11:46:29;28.40;99.90
7325;DHT22;3703;48.016;7.802;2023-06-14T11:48:56;28.10;99.90
7325;DHT22;3703;48.016;7.802;2023-06-14T11:51:25;28.30;99.90
7325;DHT22;3703;48.016;7.802;2023-06-14T11:53:53;28.40;99.90
7325;DHT22;3703;48.016;7.802;2023-06-14T11:56:20;28.40;99.90
7325;DHT22;3703;48.016;7.802;2023-06-14T11:58:48;28.40;99.90
7325;DHT22;3703;48.016;7.802;2023-06-14T12:01:16;28.30;99.90
7325;DHT22;3703;48.016;7.802;2023-06-14T12:03:50;28.40;99.90
7325;DHT22;3703;48.016;7.802;2023-06-14T12:06:27;28.50;99.90
7325;DHT22;3703;48.016;7.802;2023-06-14T12:08:58;28.70;99.90
7325;DHT22;3703;48.016;7.802;2023-06-14T12:11:32;28.60;99.90
7325;DHT22;3703;48.016;7.802;2023-06-14T12:14:00;28.50;99.90
7325;DHT22;3703;48.016;7.802;2023-06-14T12:16:31;28.70;99.90
7325;DHT22;3703;48.016;7.802;2023-06-14T12:19:12;28.90;99.90
7325;DHT22;3703;48.016;7.802;2023-06-14T12:21:43;29.20;99.90
7325;DHT22;3703;48.016;7.802;2023-06-14T12:24:14;29.20;99.90
7325;DHT22;3703;48.016;7.802;2023-06-14T12:26:42;29.10;99.90
7325;DHT22;3703;48.016;7.802;2023-06-14T12:29:09;29.00;99.90
7325;DHT22;3703;48.016;7.802;2023-06-14T12:31:37;29.10;99.90
7325;DHT22;3703;48.016;7.802;2023-06-14T12:34:05;29.10;99.90
7325;DHT22;3703;48.016;7.802;2023-06-14T12:36:32;29.10;99.90
7325;DHT22;3703;48.016;7.802;2023-06-14T12:39:03;29.20;99.90
7325;DHT22;3703;48.016;7.802;2023-06-14T12:41:30;29.20;99.90
7325;DHT22;3703;48.016;7.802;2023-06-14T12:43:57;29.00;99.90
7325;DHT22;3703;48.016;7.802;2023-06-14T12:46:25;29.30;99.90
7325;DHT22;3703;48.016;7.802;2023-06-14T12:48:52;29.40;99.90
7325;DHT22;3703;48.016;7.802;2023-06-14T12:51:20;29.40;99.90
7325;DHT22;3703;48.016;7.802;2023-06-14T12:53:48;29.30;99.90
7325;DHT22;3703;48.016;7.802;2023-06-14T12:56:17;29.40;99.90
7325;DHT22;3703;48.016;7.802;2023-06-14T12:58:44;29.10;98.70
7325;DHT22;3703;48.016;7.802;2023-06-14T13:01:11;29.40;99.90
7325;DHT22;3703;48.016;7.802;2023-06-14T13:03:40;29.30;98.80
7325;DHT22;3703;48.016;7.802;2023-06-14T13:06:07;29.30;98.70
7325;DHT22;3703;48.016;7.802;2023-06-14T13:08:34;29.30;97.10
7325;DHT22;3703;48.016;7.802;2023-06-14T13:11:02;29.20;91.60
7325;DHT22;3703;48.016;7.802;2023-06-14T13:13:31;29.20;92.90
7325;DHT22;3703;48.016;7.802;2023-06-14T13:15:58;29.30;96.30
7325;DHT22;3703;48.016;7.802;2023-06-14T13:18:26;29.30;91.80
7325;DHT22;3703;48.016;7.802;2023-06-14T13:20:53;29.30;90.40
7325;DHT22;3703;48.016;7.802;2023-06-14T13:23:20;28.90;82.10
7325;DHT22;3703;48.016;7.802;2023-06-14T13:25:48;29.00;85.20
7325;DHT22;3703;48.016;7.802;2023-06-14T13:28:16;29.20;86.70
7325;DHT22;3703;48.016;7.802;2023-06-14T13:30:45;29.30;89.90
7325;DHT22;3703;48.016;7.802;2023-06-14T13:33:13;29.30;92.50
7325;DHT22;3703;48.016;7.802;2023-06-14T13:35:40;29.40;91.80
7325;DHT22;3703;48.016;7.802;2023-06-14T13:38:09;29.50;93.20
7325;DHT22;3703;48.016;7.802;2023-06-14T13:40:36;29.40;91.60
7325;DHT22;3703;48.016;7.802;2023-06-14T13:43:03;29.30;89.60
7325;DHT22;3703;48.016;7.802;2023-06-14T13:45:31;29.40;91.10
7325;DHT22;3703;48.016;7.802;2023-06-14T13:47:59;29.50;91.00
7325;DHT22;3703;48.016;7.802;2023-06-14T13:50:27;29.50;89.70
7325;DHT22;3703;48.016;7.802;2023-06-14T13:52:54;29.60;83.40
7325;DHT22;3703;48.016;7.802;2023-06-14T13:55:21;29.40;81.60
7325;DHT22;3703;48.016;7.802;2023-06-14T13:57:48;29.30;72.60
7325;DHT22;3703;48.016;7.802;2023-06-14T14:00:17;29.30;75.00
7325;DHT22;3703;48.016;7.802;2023-06-14T14:02:45;29.30;75.10
7325;DHT22;3703;48.016;7.802;2023-06-14T14:05:14;29.50;79.50
7325;DHT22;3703;48.016;7.802;2023-06-14T14:07:41;29.60;78.80
7325;DHT22;3703;48.016;7.802;2023-06-14T14:10:09;29.50;76.40
7325;DHT22;3703;48.016;7.802;2023-06-14T14:12:38;29.70;75.20
7325;DHT22;3703;48.016;7.802;2023-06-14T14:15:06;29.50;72.30
7325;DHT22;3703;48.016;7.802;2023-06-14T14:17:38;29.40;64.00
7325;DHT22;3703;48.016;7.802;2023-06-14T14:20:06;29.40;64.20
7325;DHT22;3703;48.016;7.802;2023-06-14T14:22:35;29.50;67.40
7325;DHT22;3703;48.016;7.802;2023-06-14T14:25:03;29.50;65.10
7325;DHT22;3703;48.016;7.802;2023-06-14T14:27:30;29.50;66.20
7325;DHT22;3703;48.016;7.802;2023-06-14T14:29:57;29.60;65.40
7325;DHT22;3703;48.016;7.802;2023-06-14T14:32:25;29.40;57.00
7325;DHT22;3703;48.016;7.802;2023-06-14T14:34:52;29.30;54.90
7325;DHT22;3703;48.016;7.802;2023-06-14T14:37:19;29.30;54.80
7325;DHT22;3703;48.016;7.802;2023-06-14T14:39:48;29.50;59.40
7325;DHT22;3703;48.016;7.802;2023-06-14T14:42:15;29.60;62.20
7325;DHT22;3703;48.016;7.802;2023-06-14T14:44:42;29.60;65.10
7325;DHT22;3703;48.016;7.802;2023-06-14T14:47:10;29.40;57.10
7325;DHT22;3703;48.016;7.802;2023-06-14T14:49:37;29.40;55.50
7325;DHT22;3703;48.016;7.802;2023-06-14T14:52:05;29.30;52.70
7325;DHT22;3703;48.016;7.802;2023-06-14T14:54:32;29.40;57.00
7325;DHT22;3703;48.016;7.802;2023-06-14T14:57:02;29.40;57.00
7325;DHT22;3703;48.016;7.802;2023-06-14T14:59:29;29.30;52.90
7325;DHT22;3703;48.016;7.802;2023-06-14T15:01:56;29.10;51.90
7325;DHT22;3703;48.016;7.802;2023-06-14T15:04:23;29.10;50.90
7325;DHT22;3703;48.016;7.802;2023-06-14T15:06:51;29.10;51.00
7325;DHT22;3703;48.016;7.802;2023-06-14T15:09:18;29.10;50.60
7325;DHT22;3703;48.016;7.802;2023-06-14T15:11:45;28.90;46.50
7325;DHT22;3703;48.016;7.802;2023-06-14T15:14:14;29.00;51.40
7325;DHT22;3703;48.016;7.802;2023-06-14T15:16:41;28.90;50.80
7325;DHT22;3703;48.016;7.802;2023-06-14T15:19:08;28.70;48.40
7325;DHT22;3703;48.016;7.802;2023-06-14T15:21:36;28.90;51.50
7325;DHT22;3703;48.016;7.802;2023-06-14T15:24:03;28.80;50.20
7325;DHT22;3703;48.016;7.802;2023-06-14T15:26:30;28.70;47.60
7325;DHT22;3703;48.016;7.802;2023-06-14T15:28:57;28.70;51.60
7325;DHT22;3703;48.016;7.802;2023-06-14T15:31:26;28.70;52.20
7325;DHT22;3703;48.016;7.802;2023-06-14T15:33:54;28.60;53.00
7325;DHT22;3703;48.016;7.802;2023-06-14T15:36:22;28.70;55.30
7325;DHT22;3703;48.016;7.802;2023-06-14T15:38:49;28.70;55.10
7325;DHT22;3703;48.016;7.802;2023-06-14T15:41:16;28.70;57.90
7325;DHT22;3703;48.016;7.802;2023-06-14T15:43:43;28.50;48.20
7325;DHT22;3703;48.016;7.802;2023-06-14T15:46:10;28.60;51.10
7325;DHT22;3703;48.016;7.802;2023-06-14T15:48:40;28.70;54.90
7325;DHT22;3703;48.016;7.802;2023-06-14T15:51:07;28.80;56.50
7325;DHT22;3703;48.016;7.802;2023-06-14T15:53:36;28.50;47.40
7325;DHT22;3703;48.016;7.802;2023-06-14T15:56:03;28.30;44.20
7325;DHT22;3703;48.016;7.802;2023-06-14T15:58:30;28.10;39.40
7325;DHT22;3703;48.016;7.802;2023-06-14T16:00:58;28.20;39.70
7325;DHT22;3703;48.016;7.802;2023-06-14T16:03:25;28.20;40.80
7325;DHT22;3703;48.016;7.802;2023-06-14T16:05:54;28.30;44.10
7325;DHT22;3703;48.016;7.802;2023-06-14T16:08:21;28.50;49.20
7325;DHT22;3703;48.016;7.802;2023-06-14T16:10:48;28.40;45.90
7325;DHT22;3703;48.016;7.802;2023-06-14T16:13:15;28.10;41.20
7325;DHT22;3703;48.016;7.802;2023-06-14T16:15:43;28.00;41.60
7325;DHT22;3703;48.016;7.802;2023-06-14T16:18:10;27.80;39.60
7325;DHT22;3703;48.016;7.802;2023-06-14T16:20:37;27.80;39.80